Time;durP1;ratioP1;P1;durP2;ratioP2;P2;SDS_P1;SDS_P2;PMS_P1;PMS_P2;Temp;Humidity;BMP_temperature;BMP_pressure;BME280_temperature;BME280_humidity;BME280_pressure;Samples;Min_cycle;Max_cycle;Signal;HPM_P1;HPM_P2
2023/09/01 05:16:17;;;;;;;;;;;;;;;;;;1473475;26;19948;-51
2023/09/01 05:18:43;;;;;;;;;;;;;;;;;;5019120;28;20012;-47
2023/09/01 05:21:09;;;;;;;;;;;;;;;;;;5010345;28;19909;-47
2023/09/01 05:23:34;;;;;;;;;;;;;;;;;;5027198;28;19913;-45
2023/09/01 05:26:01;;;;;;;;;;;;;;;;;;5028889;28;19921;-44
2023/09/01 05:28:27;;;;;;;;;;;;;;;;;;5022651;28;20016;-43
2023/09/01 05:30:53;;;;;;;;;;;;;;;;;;4995255;28;19992;-44
2023/09/01 05:33:19;;;;;;;;;;;;;;;;;;5013862;28;20406;-43
2023/09/01 05:35:44;;;;;;;;;;;;;;;;;;5030044;28;19916;-45
2023/09/01 05:38:10;;;;;;;;;;;;;;;;;;5029804;28;20391;-43
2023/09/01 05:40:37;;;;;;;;;;;;;;;;;;5029997;28;19916;-43
2023/09/01 05:43:03;;;;;;;;;;;;;;;;;;5024650;28;19913;-43
2023/09/01 05:45:29;;;;;;;;;;;;;;;;;;5025282;28;20024;-43
2023/09/01 05:47:56;;;;;;;;;;;;;;;;;;5016194;28;20337;-47
2023/09/01 05:50:22;;;;;;;;;;;;;;;;;;5029970;28;19920;-44
2023/09/01 05:52:48;;;;;;;;;;;;;;;;;;5028526;28;20267;-44
2023/09/01 05:55:13;;;;;;;;;;;;;;;;;;5026365;28;20174;-44
2023/09/01 05:57:40;;;;;;;;;;;;;;;;;;5012623;28;20638;-43
2023/09/01 06:00:06;;;;;;;;;;;;;;;;;;5015334;28;19964;-43
2023/09/01 06:02:32;;;;;;;;;;;;;;;;;;5033362;28;19909;-42
2023/09/01 06:04:58;;;;;;;;;;;;;;;;;;5032899;28;20008;-45
2023/09/01 06:07:24;;;;;;;;;;;;;;;;;;5024695;28;20351;-44
2023/09/01 06:09:50;;;;;;;;;;;;;;;;;;5029118;28;19913;-44
2023/09/01 06:12:16;;;;;;;;;;;;;;;;;;5028662;28;20356;-43
2023/09/01 06:14:42;;;;;;;;;;;;;;;;;;5028644;28;20006;-44
2023/09/01 06:17:08;;;;;;;;;;;;;;;;;;5026537;28;20000;-43
2023/09/01 06:19:34;;;;;;;;;;;;;;;;;;5027377;28;20360;-44
2023/09/01 06:22:00;;;;;;;;;;;;;;;;;;5025090;28;19913;-44
2023/09/01 06:24:26;;;;;;;;;;;;;;;;;;5028346;28;19920;-44
2023/09/01 06:26:52;;;;;;;;;;;;;;;;;;5027373;28;19913;-44
2023/09/01 06:29:18;;;;;;;;;;;;;;;;;;5030987;28;19916;-44
2023/09/01 06:31:44;;;;;;;;;;;;;;;;;;5033348;28;19913;-43
2023/09/01 06:34:10;;;;;;;;;;;;;;;;;;5033560;28;19909;-43
2023/09/01 06:36:36;;;;;;;;;;;;;;;;;;5033077;28;20280;-46
2023/09/01 06:39:02;;;;;;;;;;;;;;;;;;5033359;28;19909;-43
2023/09/01 06:41:28;;;;;;;;;;;;;;;;;;5031908;28;19914;-43
2023/09/01 06:43:54;;;;;;;;;;;;;;;;;;5016014;28;19928;-43
2023/09/01 06:46:19;;;;;;;;;;;;;;;;;;5033337;28;19913;-45
2023/09/01 06:48:48;;;;;;;;;;;;;;;;;;5022010;28;20411;-44
2023/09/01 06:51:14;;;;;;;;;;;;;;;;;;5031206;28;20016;-43
2023/09/01 06:53:40;;;;;;;;;;;;;;;;;;5031995;28;19960;-43
2023/09/01 06:56:06;;;;;;;;;;;;;;;;;;5033403;28;19913;-43
2023/09/01 06:58:32;;;;;;;;;;;;;;;;;;5033397;28;20334;-43
2023/09/01 07:00:58;;;;;;;;;;;;;;;;;;5028306;28;19913;-46
2023/09/01 07:03:24;;;;;;;;;;;;;;;;;;5032554;28;19932;-42
2023/09/01 07:05:50;;;;;;;;;;;;;;;;;;5031387;28;19913;-44
2023/09/01 07:08:16;;;;;;;;;;;;;;;;;;5029010;28;19913;-46
2023/09/01 07:10:42;;;;;;;;;;;;;;;;;;5030694;28;19920;-45
2023/09/01 07:13:07;;;;;;;;;;;;;;;;;;5029500;28;19952;-44
2023/09/01 07:15:33;;;;;;;;;;;;;;;;;;5031958;28;19910;-43
2023/09/01 07:17:59;;;;;;;;;;;;;;;;;;5030322;28;19917;-43
2023/09/01 07:20:25;;;;;;;;;;;;;;;;;;5030462;28;20319;-43
2023/09/01 07:22:51;;;;;;;;;;;;;;;;;;5031682;28;19920;-44
2023/09/01 07:25:17;;;;;;;;;;;;;;;;;;5030145;28;19968;-44
2023/09/01 07:27:43;;;;;;;;;;;;;;;;;;5025091;28;19927;-49
2023/09/01 07:30:13;;;;;;;;;;;;;;;;;;5027910;28;19913;-44
2023/09/01 07:32:40;;;;;;;;;;;;;;;;;;5031678;28;20368;-46
2023/09/01 07:35:05;;;;;;;;;;;;;;;;;;5027649;28;19913;-43
2023/09/01 07:37:31;;;;;;;;;;;;;;;;;;5031887;28;19914;-44
2023/09/01 07:39:57;;;;;;;;;;;;;;;;;;5030097;28;19920;-44
2023/09/01 07:42:23;;;;;;;;;;;;;;;;;;5026017;28;20336;-45
2023/09/01 07:44:49;;;;;;;;;;;;;;;;;;5025024;28;19970;-44
2023/09/01 07:47:15;;;;;;;;;;;;;;;;;;5025546;28;20259;-44
2023/09/01 07:49:41;;;;;;;;;;;;;;;;;;5019584;28;19909;-44
2023/09/01 07:52:07;;;;;;;;;;;;;;;;;;5025088;28;19972;-45
2023/09/01 07:54:32;;;;;;;;;;;;;;;;;;5030384;28;19913;-48
2023/09/01 07:56:58;;;;;;;;;;;;;;;;;;5003247;28;20004;-46
2023/09/01 07:59:24;;;;;;;;;;;;;;;;;;5028212;28;19913;-44
2023/09/01 08:01:52;;;;;;;;;;;;;;;;;;5031311;28;19920;-43
2023/09/01 08:04:17;;;;;;;;;;;;;;;;;;5013259;28;19999;-45
2023/09/01 08:06:43;;;;;;;;;;;;;;;;;;5031089;28;20419;-46
2023/09/01 08:09:09;;;;;;;;;;;;;;;;;;5031005;28;19909;-44
2023/09/01 08:11:35;;;;;;;;;;;;;;;;;;5030989;28;20384;-43
2023/09/01 08:14:01;;;;;;;;;;;;;;;;;;5031433;28;19913;-45
2023/09/01 08:16:27;;;;;;;;;;;;;;;;;;5031075;28;20007;-44
2023/09/01 08:18:53;;;;;;;;;;;;;;;;;;5030234;28;19917;-44
2023/09/01 08:21:19;;;;;;;;;;;;;;;;;;5029202;28;19909;-45
2023/09/01 08:23:46;;;;;;;;;;;;;;;;;;5029529;28;19961;-45
2023/09/01 08:26:12;;;;;;;;;;;;;;;;;;5029794;28;19917;-44
2023/09/01 08:28:38;;;;;;;;;;;;;;;;;;5029546;28;19924;-44
2023/09/01 08:31:04;;;;;;;;;;;;;;;;;;5029963;28;19935;-44
2023/09/01 08:33:30;;;;;;;;;;;;;;;;;;5029088;28;19940;-45
2023/09/01 08:35:56;;;;;;;;;;;;;;;;;;5029833;28;20376;-45
2023/09/01 08:38:21;;;;;;;;;;;;;;;;;;5029402;28;19910;-45
2023/09/01 08:40:50;;;;;;;;;;;;;;;;;;5029783;28;19909;-43
2023/09/01 08:43:16;;;;;;;;;;;;;;;;;;5029329;28;20027;-45
2023/09/01 08:45:42;;;;;;;;;;;;;;;;;;5011713;28;20007;-46
2023/09/01 08:48:08;;;;;;;;;;;;;;;;;;5029086;28;19916;-45
2023/09/01 08:50:34;;;;;;;;;;;;;;;;;;5029834;28;19916;-43
2023/09/01 08:53:02;;;;;;;;;;;;;;;;;;5029371;28;19917;-43
2023/09/01 08:55:27;;;;;;;;;;;;;;;;;;5029290;28;19909;-44
2023/09/01 08:57:53;;;;;;;;;;;;;;;;;;5029163;28;19909;-46
2023/09/01 09:00:19;;;;;;;;;;;;;;;;;;5029711;28;19910;-45
2023/09/01 09:02:45;;;;;;;;;;;;;;;;;;5029054;28;19928;-47
2023/09/01 09:05:11;;;;;;;;;;;;;;;;;;5029348;28;20371;-45
2023/09/01 09:07:37;;;;;;;;;;;;;;;;;;5028915;28;19910;-48
2023/09/01 09:10:04;;;;;;;;;;;;;;;;;;5029538;28;20260;-44
2023/09/01 09:12:30;;;;;;;;;;;;;;;;;;5029435;28;19917;-44
2023/09/01 09:14:56;;;;;;;;;;;;;;;;;;5029071;28;20275;-44
2023/09/01 09:17:22;;;;;;;;;;;;;;;;;;5028836;28;20299;-48
2023/09/01 09:19:48;;;;;;;;;;;;;;;;;;5028923;28;20382;-44
2023/09/01 09:22:14;;;;;;;;;;;;;;;;;;5029050;28;19914;-48
2023/09/01 09:24:41;;;;;;;;;;;;;;;;;;5028875;28;20372;-45
2023/09/01 09:27:07;;;;;;;;;;;;;;;;;;5028836;28;19952;-43
2023/09/01 09:29:33;;;;;;;;;;;;;;;;;;5029274;28;19975;-45
2023/09/01 09:31:58;;;;;;;;;;;;;;;;;;5028897;28;19917;-44
2023/09/01 09:34:27;;;;;;;;;;;;;;;;;;5031786;28;20020;-43
2023/09/01 09:36:53;;;;;;;;;;;;;;;;;;5032700;28;19916;-46
2023/09/01 09:39:19;;;;;;;;;;;;;;;;;;5032652;28;20243;-46
2023/09/01 09:41:45;;;;;;;;;;;;;;;;;;5032668;28;19959;-45
2023/09/01 09:44:12;;;;;;;;;;;;;;;;;;5032399;28;20378;-44
2023/09/01 09:46:38;;;;;;;;;;;;;;;;;;5032476;28;19913;-44
2023/09/01 09:49:04;;;;;;;;;;;;;;;;;;5032803;28;19921;-45
2023/09/01 09:51:30;;;;;;;;;;;;;;;;;;5032500;28;19915;-44
2023/09/01 09:53:56;;;;;;;;;;;;;;;;;;5032268;28;19909;-45
2023/09/01 09:56:22;;;;;;;;;;;;;;;;;;5032165;28;20375;-45
2023/09/01 09:58:48;;;;;;;;;;;;;;;;;;5032147;28;19909;-45
2023/09/01 10:01:14;;;;;;;;;;;;;;;;;;5032532;28;19909;-45
2023/09/01 10:03:39;;;;;;;;;;;;;;;;;;5014811;28;20257;-44
2023/09/01 10:06:05;;;;;;;;;;;;;;;;;;5032835;28;19960;-43
2023/09/01 10:08:31;;;;;;;;;;;;;;;;;;5033226;28;19915;-44
2023/09/01 10:10:58;;;;;;;;;;;;;;;;;;5014859;28;20343;-46
2023/09/01 10:13:23;;;;;;;;;;;;;;;;;;5032255;28;19963;-47
2023/09/01 10:15:49;;;;;;;;;;;;;;;;;;5029888;28;19914;-43
2023/09/01 10:18:16;;;;;;;;;;;;;;;;;;5028457;28;20390;-44
2023/09/01 10:20:41;;;;;;;;;;;;;;;;;;5032294;28;20004;-48
2023/09/01 10:23:08;;;;;;;;;;;;;;;;;;5032616;28;20339;-44
2023/09/01 10:25:34;;;;;;;;;;;;;;;;;;5033383;28;20019;-46
2023/09/01 10:28:00;;;;;;;;;;;;;;;;;;5030000;28;20011;-47
2023/09/01 10:30:26;;;;;;;;;;;;;;;;;;5028576;28;19921;-45
2023/09/01 10:32:52;;;;;;;;;;;;;;;;;;5033078;28;20000;-44
2023/09/01 10:35:18;;;;;;;;;;;;;;;;;;5031020;28;20395;-47
2023/09/01 10:37:44;;;;;;;;;;;;;;;;;;5023932;28;19967;-45
2023/09/01 10:40:10;;;;;;;;;;;;;;;;;;5014905;28;19960;-45
2023/09/01 10:42:35;;;;;;;;;;;;;;;;;;5031037;28;19913;-43
2023/09/01 10:45:01;;;;;;;;;;;;;;;;;;5024434;28;19922;-43
2023/09/01 10:47:27;;;;;;;;;;;;;;;;;;5030900;28;20284;-44
2023/09/01 10:49:53;;;;;;;;;;;;;;;;;;5029297;28;19918;-45
2023/09/01 10:52:19;;;;;;;;;;;;;;;;;;5030690;28;19941;-46
2023/09/01 10:54:45;;;;;;;;;;;;;;;;;;5030647;28;19913;-45
2023/09/01 10:57:11;;;;;;;;;;;;;;;;;;5031182;28;19910;-46
2023/09/01 10:59:37;;;;;;;;;;;;;;;;;;5026039;28;19924;-45
2023/09/01 11:02:03;;;;;;;;;;;;;;;;;;5029135;28;20422;-45
2023/09/01 11:04:29;;;;;;;;;;;;;;;;;;5026991;28;19999;-44
2023/09/01 11:06:55;;;;;;;;;;;;;;;;;;5027944;28;20956;-45
2023/09/01 11:09:21;;;;;;;;;;;;;;;;;;5026100;28;19920;-45
2023/09/01 11:11:47;;;;;;;;;;;;;;;;;;5027313;28;19935;-45
2023/09/01 11:14:15;;;;;;;;;;;;;;;;;;5026342;28;19913;-45
2023/09/01 11:16:42;;;;;;;;;;;;;;;;;;5024204;28;19924;-45
2023/09/01 11:19:08;;;;;;;;;;;;;;;;;;5024488;28;19921;-44
2023/09/01 11:21:34;;;;;;;;;;;;;;;;;;5025435;28;20019;-44
2023/09/01 11:24:00;;;;;;;;;;;;;;;;;;5003633;28;20371;-44
2023/09/01 11:26:26;;;;;;;;;;;;;;;;;;5009700;28;19917;-44
2023/09/01 11:28:52;;;;;;;;;;;;;;;;;;5018259;28;20303;-47
2023/09/01 11:31:18;;;;;;;;;;;;;;;;;;5022698;28;20350;-47
2023/09/01 11:33:44;;;;;;;;;;;;;;;;;;5019722;28;20385;-45
2023/09/01 11:36:10;;;;;;;;;;;;;;;;;;5028604;28;19962;-45
2023/09/01 11:38:36;;;;;;;;;;;;;;;;;;5022447;28;19914;-44
2023/09/01 11:41:02;;;;;;;;;;;;;;;;;;5018104;28;20428;-43
2023/09/01 11:43:28;;;;;;;;;;;;;;;;;;5027045;28;19952;-45
2023/09/01 11:45:54;;;;;;;;;;;;;;;;;;5019406;28;20395;-44
2023/09/01 11:48:20;;;;;;;;;;;;;;;;;;5018818;28;20058;-44
2023/09/01 11:50:46;;;;;;;;;;;;;;;;;;5023547;28;19913;-43
2023/09/01 11:53:12;;;;;;;;;;;;;;;;;;5013621;28;20388;-44
2023/09/01 11:55:42;;;;;;;;;;;;;;;;;;5019045;28;19917;-45
2023/09/01 11:58:08;;;;;;;;;;;;;;;;;;5009703;28;19928;-47
2023/09/01 12:00:34;;;;;;;;;;;;;;;;;;5019670;28;20342;-43
2023/09/01 12:03:00;;;;;;;;;;;;;;;;;;5022538;28;19953;-45
2023/09/01 12:05:26;;;;;;;;;;;;;;;;;;5018742;28;19964;-47
2023/09/01 12:07:53;;;;;;;;;;;;;;;;;;5026886;28;19919;-43
2023/09/01 12:10:19;;;;;;;;;;;;;;;;;;5025466;28;19910;-43
2023/09/01 12:12:44;;;;;;;;;;;;;;;;;;5028199;28;20401;-47
2023/09/01 12:15:10;;;;;;;;;;;;;;;;;;5023588;28;19913;-48
2023/09/01 12:17:36;;;;;;;;;;;;;;;;;;5022138;28;19952;-48
2023/09/01 12:20:02;;;;;;;;;;;;;;;;;;5022826;28;19936;-47
2023/09/01 12:22:28;;;;;;;;;;;;;;;;;;5028443;28;19955;-44
2023/09/01 12:24:54;;;;;;;;;;;;;;;;;;5022781;28;20420;-45
2023/09/01 12:27:20;;;;;;;;;;;;;;;;;;5028664;28;19983;-45
2023/09/01 12:29:46;;;;;;;;;;;;;;;;;;5027532;28;19917;-43
2023/09/01 12:32:12;;;;;;;;;;;;;;;;;;5025176;28;19910;-43
2023/09/01 12:34:38;;;;;;;;;;;;;;;;;;5026079;28;19913;-45
2023/09/01 12:37:04;;;;;;;;;;;;;;;;;;5027137;28;20391;-45
2023/09/01 12:39:30;;;;;;;;;;;;;;;;;;5027652;28;19917;-46
2023/09/01 12:41:56;;;;;;;;;;;;;;;;;;5023166;28;19913;-47
2023/09/01 12:44:22;;;;;;;;;;;;;;;;;;5026486;28;20303;-45
2023/09/01 12:46:47;;;;;;;;;;;;;;;;;;5026943;28;19920;-47
2023/09/01 12:49:13;;;;;;;;;;;;;;;;;;5030046;28;19964;-45
2023/09/01 12:51:39;;;;;;;;;;;;;;;;;;5029125;28;20331;-44
2023/09/01 12:54:05;;;;;;;;;;;;;;;;;;5025555;28;20051;-44
2023/09/01 12:56:33;;;;;;;;;;;;;;;;;;5026456;28;19996;-45
2023/09/01 12:58:59;;;;;;;;;;;;;;;;;;5024200;28;19910;-45
2023/09/01 13:01:25;;;;;;;;;;;;;;;;;;5025827;28;20280;-45
2023/09/01 13:03:51;;;;;;;;;;;;;;;;;;5023544;28;19913;-45
2023/09/01 13:06:16;;;;;;;;;;;;;;;;;;5028786;28;20330;-44
2023/09/01 13:08:42;;;;;;;;;;;;;;;;;;5031791;28;19909;-46
2023/09/01 13:11:11;;;;;;;;;;;;;;;;;;5030918;28;19956;-44
2023/09/01 13:13:37;;;;;;;;;;;;;;;;;;5027458;28;20015;-45
2023/09/01 13:16:03;;;;;;;;;;;;;;;;;;5033584;28;19916;-45
2023/09/01 13:18:29;;;;;;;;;;;;;;;;;;5030695;28;19917;-47
2023/09/01 13:20:55;;;;;;;;;;;;;;;;;;5031279;28;19944;-44
2023/09/01 13:23:21;;;;;;;;;;;;;;;;;;5027732;28;20396;-44
2023/09/01 13:25:47;;;;;;;;;;;;;;;;;;5032760;28;19913;-44
2023/09/01 13:28:13;;;;;;;;;;;;;;;;;;5032532;28;19913;-44
2023/09/01 13:30:39;;;;;;;;;;;;;;;;;;5033455;28;19948;-45
2023/09/01 13:33:05;;;;;;;;;;;;;;;;;;5036546;28;19913;-44
2023/09/01 13:35:31;;;;;;;;;;;;;;;;;;5033066;28;19909;-44
2023/09/01 13:37:57;;;;;;;;;;;;;;;;;;5030804;28;19979;-46
2023/09/01 13:40:23;;;;;;;;;;;;;;;;;;5009507;28;19920;-44
2023/09/01 13:42:49;;;;;;;;;;;;;;;;;;5030800;28;20511;-46
2023/09/01 13:45:14;;;;;;;;;;;;;;;;;;5030517;28;19920;-44
2023/09/01 13:47:40;;;;;;;;;;;;;;;;;;5031201;28;19913;-45
2023/09/01 13:50:06;;;;;;;;;;;;;;;;;;5029583;28;19916;-45
2023/09/01 13:52:32;;;;;;;;;;;;;;;;;;5031611;28;19913;-45
2023/09/01 13:54:58;;;;;;;;;;;;;;;;;;5032567;28;19963;-45
2023/09/01 13:57:24;;;;;;;;;;;;;;;;;;5033463;28;20375;-43
2023/09/01 13:59:50;;;;;;;;;;;;;;;;;;5032396;28;19910;-45
2023/09/01 14:02:16;;;;;;;;;;;;;;;;;;5032642;28;20596;-44
2023/09/01 14:04:42;;;;;;;;;;;;;;;;;;5032276;28;19916;-47
2023/09/01 14:07:08;;;;;;;;;;;;;;;;;;5031598;28;19909;-46
2023/09/01 14:09:34;;;;;;;;;;;;;;;;;;5027667;28;20363;-45
2023/09/01 14:12:00;;;;;;;;;;;;;;;;;;5022736;28;19964;-46
2023/09/01 14:14:26;;;;;;;;;;;;;;;;;;5025073;28;19941;-44
2023/09/01 14:16:52;;;;;;;;;;;;;;;;;;5028856;28;19917;-45
2023/09/01 14:19:17;;;;;;;;;;;;;;;;;;5028543;28;19920;-44
2023/09/01 14:21:44;;;;;;;;;;;;;;;;;;5025262;28;20396;-45
2023/09/01 14:24:09;;;;;;;;;;;;;;;;;;5027546;28;19917;-43
2023/09/01 14:26:35;;;;;;;;;;;;;;;;;;5022830;28;19921;-45
2023/09/01 14:29:04;;;;;;;;;;;;;;;;;;5027209;28;20393;-44
2023/09/01 14:31:30;;;;;;;;;;;;;;;;;;5025766;28;19940;-45
2023/09/01 14:33:56;;;;;;;;;;;;;;;;;;5027416;28;19913;-44
2023/09/01 14:36:21;;;;;;;;;;;;;;;;;;5022451;28;20383;-44
2023/09/01 14:38:47;;;;;;;;;;;;;;;;;;5026053;28;19917;-47
2023/09/01 14:41:13;;;;;;;;;;;;;;;;;;5027127;28;19913;-44
2023/09/01 14:43:39;;;;;;;;;;;;;;;;;;5028472;28;19917;-43
2023/09/01 14:46:05;;;;;;;;;;;;;;;;;;5030123;28;19913;-45
2023/09/01 14:48:31;;;;;;;;;;;;;;;;;;5028594;28;19913;-45
2023/09/01 14:50:57;;;;;;;;;;;;;;;;;;5031804;28;19913;-45
2023/09/01 14:53:23;;;;;;;;;;;;;;;;;;5028962;28;19913;-45
2023/09/01 14:55:49;;;;;;;;;;;;;;;;;;5030970;28;19996;-45
2023/09/01 14:58:15;;;;;;;;;;;;;;;;;;5030331;28;19976;-44
2023/09/01 15:00:41;;;;;;;;;;;;;;;;;;5012430;28;19952;-45
2023/09/01 15:03:06;;;;;;;;;;;;;;;;;;5028463;28;19917;-45
2023/09/01 15:05:32;;;;;;;;;;;;;;;;;;5029778;28;19939;-44
2023/09/01 15:07:58;;;;;;;;;;;;;;;;;;5030479;28;20395;-44
2023/09/01 15:10:24;;;;;;;;;;;;;;;;;;5029802;28;19920;-43
2023/09/01 15:12:50;;;;;;;;;;;;;;;;;;5026072;28;20312;-46
2023/09/01 15:15:16;;;;;;;;;;;;;;;;;;5026618;28;20880;-44
2023/09/01 15:17:42;;;;;;;;;;;;;;;;;;5028417;28;20141;-44
2023/09/01 15:20:10;;;;;;;;;;;;;;;;;;5029285;28;19917;-45
2023/09/01 15:22:36;;;;;;;;;;;;;;;;;;5027384;28;20344;-44
2023/09/01 15:25:02;;;;;;;;;;;;;;;;;;5027240;28;20028;-44
2023/09/01 15:27:28;;;;;;;;;;;;;;;;;;5029023;28;19912;-45
2023/09/01 15:29:54;;;;;;;;;;;;;;;;;;5029668;28;19967;-48
2023/09/01 15:32:20;;;;;;;;;;;;;;;;;;5026760;28;19971;-44
2023/09/01 15:34:46;;;;;;;;;;;;;;;;;;5024053;28;19944;-44
2023/09/01 15:37:12;;;;;;;;;;;;;;;;;;5027065;28;19913;-52
2023/09/01 15:39:38;;;;;;;;;;;;;;;;;;5028674;28;20397;-52
2023/09/01 15:42:04;;;;;;;;;;;;;;;;;;5028931;28;19932;-51
2023/09/01 15:44:30;;;;;;;;;;;;;;;;;;5026052;28;19913;-50
2023/09/01 15:46:56;;;;;;;;;;;;;;;;;;5029218;28;19913;-50
2023/09/01 15:49:22;;;;;;;;;;;;;;;;;;5029328;28;19913;-44
2023/09/01 15:51:48;;;;;;;;;;;;;;;;;;5028682;28;20000;-44
2023/09/01 15:54:14;;;;;;;;;;;;;;;;;;5022998;28;19924;-45
2023/09/01 15:56:40;;;;;;;;;;;;;;;;;;5028300;28;20430;-45
2023/09/01 15:59:06;;;;;;;;;;;;;;;;;;5026906;28;19960;-44
2023/09/01 16:01:32;;;;;;;;;;;;;;;;;;5028409;28;19920;-44
2023/09/01 16:03:58;;;;;;;;;;;;;;;;;;5027995;28;19909;-44
2023/09/01 16:06:25;;;;;;;;;;;;;;;;;;5027737;28;19928;-46
2023/09/01 16:08:52;;;;;;;;;;;;;;;;;;5029368;28;19909;-46
2023/09/01 16:11:18;;;;;;;;;;;;;;;;;;5027724;28;19924;-48
2023/09/01 16:13:44;;;;;;;;;;;;;;;;;;5029351;28;20295;-44
2023/09/01 16:16:09;;;;;;;;;;;;;;;;;;5027979;28;19913;-44
2023/09/01 16:18:35;;;;;;;;;;;;;;;;;;5029257;28;19952;-44
2023/09/01 16:21:02;;;;;;;;;;;;;;;;;;5029532;28;20272;-44
2023/09/01 16:23:28;;;;;;;;;;;;;;;;;;5029402;28;19909;-44
2023/09/01 16:25:54;;;;;;;;;;;;;;;;;;5028316;28;19920;-43
2023/09/01 16:28:20;;;;;;;;;;;;;;;;;;5027015;28;19917;-46
2023/09/01 16:30:45;;;;;;;;;;;;;;;;;;5028987;28;19917;-46
2023/09/01 16:33:11;;;;;;;;;;;;;;;;;;5028076;28;20370;-43
2023/09/01 16:35:37;;;;;;;;;;;;;;;;;;5026803;28;19967;-45
2023/09/01 16:38:03;;;;;;;;;;;;;;;;;;5027325;28;19913;-44
2023/09/01 16:40:29;;;;;;;;;;;;;;;;;;5029060;28;19909;-44
2023/09/01 16:42:56;;;;;;;;;;;;;;;;;;5027664;28;19913;-45
2023/09/01 16:45:22;;;;;;;;;;;;;;;;;;5028692;28;20360;-45
2023/09/01 16:47:48;;;;;;;;;;;;;;;;;;5028810;28;19955;-45
2023/09/01 16:50:15;;;;;;;;;;;;;;;;;;5028835;28;19909;-45
2023/09/01 16:52:41;;;;;;;;;;;;;;;;;;5024993;28;19917;-44
2023/09/01 16:55:07;;;;;;;;;;;;;;;;;;5027680;28;20414;-46
2023/09/01 16:57:35;;;;;;;;;;;;;;;;;;5025932;28;19913;-45
2023/09/01 17:00:01;;;;;;;;;;;;;;;;;;5026053;28;19916;-48
2023/09/01 17:02:27;;;;;;;;;;;;;;;;;;5001365;28;20391;-48
2023/09/01 17:04:53;;;;;;;;;;;;;;;;;;5022917;28;19964;-50
2023/09/01 17:07:19;;;;;;;;;;;;;;;;;;5025298;28;19913;-49
2023/09/01 17:09:45;;;;;;;;;;;;;;;;;;5013420;28;20123;-45
2023/09/01 17:12:10;;;;;;;;;;;;;;;;;;5015735;28;20257;-47
2023/09/01 17:14:36;;;;;;;;;;;;;;;;;;5022015;28;19967;-48
2023/09/01 17:17:02;;;;;;;;;;;;;;;;;;5023477;28;19957;-45
2023/09/01 17:19:28;;;;;;;;;;;;;;;;;;5027579;28;19921;-46
2023/09/01 17:21:54;;;;;;;;;;;;;;;;;;5021149;28;19940;-46
2023/09/01 17:24:20;;;;;;;;;;;;;;;;;;5024195;28;20296;-47
2023/09/01 17:26:46;;;;;;;;;;;;;;;;;;5024906;28;20386;-50
2023/09/01 17:29:12;;;;;;;;;;;;;;;;;;5024646;28;19909;-47
2023/09/01 17:31:38;;;;;;;;;;;;;;;;;;5026713;28;19921;-51
2023/09/01 17:34:04;;;;;;;;;;;;;;;;;;5019231;28;20087;-47
2023/09/01 17:36:29;;;;;;;;;;;;;;;;;;5024093;28;20451;-45
2023/09/01 17:38:55;;;;;;;;;;;;;;;;;;5022373;28;19944;-46
2023/09/01 17:41:21;;;;;;;;;;;;;;;;;;5022099;28;19914;-48
2023/09/01 17:43:47;;;;;;;;;;;;;;;;;;5018770;28;20008;-49
2023/09/01 17:46:13;;;;;;;;;;;;;;;;;;5017820;28;19913;-50
2023/09/01 17:48:39;;;;;;;;;;;;;;;;;;5021737;28;19913;-45
2023/09/01 17:51:05;;;;;;;;;;;;;;;;;;5025648;28;19944;-46
2023/09/01 17:53:31;;;;;;;;;;;;;;;;;;5018557;28;20011;-46
2023/09/01 17:55:57;;;;;;;;;;;;;;;;;;5027196;28;20410;-44
2023/09/01 17:58:23;;;;;;;;;;;;;;;;;;5022529;28;19953;-46
2023/09/01 18:00:50;;;;;;;;;;;;;;;;;;5028207;28;19913;-44
2023/09/01 18:03:16;;;;;;;;;;;;;;;;;;5028622;28;19916;-44
2023/09/01 18:05:42;;;;;;;;;;;;;;;;;;5026561;28;19917;-53
2023/09/01 18:08:08;;;;;;;;;;;;;;;;;;5028183;28;19913;-53
2023/09/01 18:10:33;;;;;;;;;;;;;;;;;;5019813;28;19917;-55
2023/09/01 18:12:59;;;;;;;;;;;;;;;;;;5029335;28;19920;-53
2023/09/01 18:15:25;;;;;;;;;;;;;;;;;;5015555;28;19913;-52
2023/09/01 18:17:51;;;;;;;;;;;;;;;;;;5025814;28;19917;-52
2023/09/01 18:20:17;;;;;;;;;;;;;;;;;;5009282;28;19917;-53
2023/09/01 18:22:43;;;;;;;;;;;;;;;;;;5019006;28;19956;-54
2023/09/01 18:25:09;;;;;;;;;;;;;;;;;;5026298;28;19917;-51
2023/09/01 18:27:35;;;;;;;;;;;;;;;;;;5005782;28;19920;-54
2023/09/01 18:30:00;;;;;;;;;;;;;;;;;;5025366;28;19959;-53
2023/09/01 18:32:26;;;;;;;;;;;;;;;;;;5022536;28;19992;-54
2023/09/01 18:34:52;;;;;;;;;;;;;;;;;;5030584;28;19909;-50
2023/09/01 18:37:18;;;;;;;;;;;;;;;;;;5025553;28;19921;-53
2023/09/01 18:39:44;;;;;;;;;;;;;;;;;;5027385;28;19917;-52
2023/09/01 18:42:10;;;;;;;;;;;;;;;;;;5023713;28;19925;-52
2023/09/01 18:44:36;;;;;;;;;;;;;;;;;;5026648;28;19913;-50
2023/09/01 18:47:02;;;;;;;;;;;;;;;;;;5027128;28;20340;-53
2023/09/01 18:49:28;;;;;;;;;;;;;;;;;;5025917;28;19913;-53
2023/09/01 18:51:57;;;;;;;;;;;;;;;;;;5026195;28;19956;-52
2023/09/01 18:54:23;;;;;;;;;;;;;;;;;;5020670;28;19935;-53
2023/09/01 18:56:49;;;;;;;;;;;;;;;;;;5028165;28;19913;-53
2023/09/01 18:59:15;;;;;;;;;;;;;;;;;;5028572;28;19944;-52
2023/09/01 19:01:41;;;;;;;;;;;;;;;;;;5025935;28;19920;-50
2023/09/01 19:04:07;;;;;;;;;;;;;;;;;;5028062;28;19916;-50
2023/09/01 19:06:33;;;;;;;;;;;;;;;;;;5025694;28;19971;-51
2023/09/01 19:08:58;;;;;;;;;;;;;;;;;;5026160;28;20008;-53
2023/09/01 19:11:26;;;;;;;;;;;;;;;;;;5025052;28;19963;-53
2023/09/01 19:13:52;;;;;;;;;;;;;;;;;;5021055;28;19919;-52
2023/09/01 19:16:18;;;;;;;;;;;;;;;;;;5034097;28;20388;-53
2023/09/01 19:18:45;;;;;;;;;;;;;;;;;;5019361;28;20387;-52
2023/09/01 19:21:11;;;;;;;;;;;;;;;;;;5025431;28;20380;-54
2023/09/01 19:23:39;;;;;;;;;;;;;;;;;;5005009;28;20435;-53
2023/09/01 19:26:05;;;;;;;;;;;;;;;;;;5022149;28;19924;-53
2023/09/01 19:28:31;;;;;;;;;;;;;;;;;;5023917;28;19968;-52
2023/09/01 19:30:57;;;;;;;;;;;;;;;;;;5022841;28;19922;-53
2023/09/01 19:33:23;;;;;;;;;;;;;;;;;;5028764;28;19964;-49
2023/09/01 19:35:48;;;;;;;;;;;;;;;;;;5019995;28;19913;-50
2023/09/01 19:38:16;;;;;;;;;;;;;;;;;;5024793;28;20414;-54
2023/09/01 19:40:42;;;;;;;;;;;;;;;;;;5025184;28;19920;-54
2023/09/01 19:43:07;;;;;;;;;;;;;;;;;;5026824;28;19913;-54
2023/09/01 19:45:34;;;;;;;;;;;;;;;;;;5019594;28;19917;-52
2023/09/01 19:48:00;;;;;;;;;;;;;;;;;;5007288;28;20342;-54
2023/09/01 19:50:26;;;;;;;;;;;;;;;;;;5025652;28;19917;-53
2023/09/01 19:52:52;;;;;;;;;;;;;;;;;;5019685;28;19917;-54
2023/09/01 19:55:18;;;;;;;;;;;;;;;;;;5026502;28;19974;-51
2023/09/01 19:57:44;;;;;;;;;;;;;;;;;;5025620;28;19928;-53
2023/09/01 20:00:09;;;;;;;;;;;;;;;;;;5018402;28;20283;-51
2023/09/01 20:02:35;;;;;;;;;;;;;;;;;;5025899;28;20006;-52
2023/09/01 20:05:01;;;;;;;;;;;;;;;;;;5020652;28;20414;-53
2023/09/01 20:07:27;;;;;;;;;;;;;;;;;;5024685;28;19920;-53
2023/09/01 20:09:56;;;;;;;;;;;;;;;;;;5024787;28;19920;-52
2023/09/01 20:12:22;;;;;;;;;;;;;;;;;;5025037;28;19924;-53
2023/09/01 20:14:48;;;;;;;;;;;;;;;;;;5018936;28;19913;-52
2023/09/01 20:17:14;;;;;;;;;;;;;;;;;;5025524;28;19928;-51
2023/09/01 20:19:39;;;;;;;;;;;;;;;;;;5009571;28;20445;-55
2023/09/01 20:22:05;;;;;;;;;;;;;;;;;;5021612;28;19913;-52
2023/09/01 20:24:31;;;;;;;;;;;;;;;;;;5026953;28;19936;-53
2023/09/01 20:26:57;;;;;;;;;;;;;;;;;;5025043;28;19966;-52
2023/09/01 20:29:23;;;;;;;;;;;;;;;;;;5025479;28;20418;-52
2023/09/01 20:31:49;;;;;;;;;;;;;;;;;;5025454;28;19924;-51
2023/09/01 20:34:15;;;;;;;;;;;;;;;;;;5022225;28;19913;-50
2023/09/01 20:36:41;;;;;;;;;;;;;;;;;;5022821;28;19917;-52
2023/09/01 20:39:07;;;;;;;;;;;;;;;;;;5019884;28;19920;-52
2023/09/01 20:41:33;;;;;;;;;;;;;;;;;;5025833;28;20008;-51
2023/09/01 20:43:59;;;;;;;;;;;;;;;;;;5025301;28;20431;-49
2023/09/01 20:46:25;;;;;;;;;;;;;;;;;;5024110;28;19923;-50
2023/09/01 20:48:51;;;;;;;;;;;;;;;;;;5024158;28;19917;-53
2023/09/01 20:51:17;;;;;;;;;;;;;;;;;;5007125;28;19923;-52
2023/09/01 20:53:43;;;;;;;;;;;;;;;;;;5023096;28;19943;-52
2023/09/01 20:56:09;;;;;;;;;;;;;;;;;;5027896;28;19909;-53
2023/09/01 20:58:35;;;;;;;;;;;;;;;;;;5023281;28;19963;-53
2023/09/01 21:01:00;;;;;;;;;;;;;;;;;;5028152;28;19909;-53
2023/09/01 21:03:26;;;;;;;;;;;;;;;;;;5025621;28;20633;-51
2023/09/01 21:05:52;;;;;;;;;;;;;;;;;;5027574;28;20491;-50
2023/09/01 21:08:18;;;;;;;;;;;;;;;;;;5007881;28;19921;-54
2023/09/01 21:10:44;;;;;;;;;;;;;;;;;;5025583;28;19999;-54
2023/09/01 21:13:10;;;;;;;;;;;;;;;;;;5027458;28;19909;-51
2023/09/01 21:15:36;;;;;;;;;;;;;;;;;;5024511;28;19920;-50
2023/09/01 21:18:02;;;;;;;;;;;;;;;;;;5027063;28;20356;-54
2023/09/01 21:20:28;;;;;;;;;;;;;;;;;;5027168;28;19929;-52
2023/09/01 21:22:54;;;;;;;;;;;;;;;;;;5027243;28;19944;-52
2023/09/01 21:25:20;;;;;;;;;;;;;;;;;;5027674;28;19913;-50
2023/09/01 21:27:46;;;;;;;;;;;;;;;;;;5025614;28;19914;-51
2023/09/01 21:30:12;;;;;;;;;;;;;;;;;;5028950;28;19988;-53
2023/09/01 21:32:38;;;;;;;;;;;;;;;;;;5026904;28;19913;-50
2023/09/01 21:35:04;;;;;;;;;;;;;;;;;;5030881;28;19919;-49
2023/09/01 21:37:29;;;;;;;;;;;;;;;;;;5031544;28;19920;-54
2023/09/01 21:39:55;;;;;;;;;;;;;;;;;;5031173;28;19952;-52
2023/09/01 21:42:21;;;;;;;;;;;;;;;;;;5013165;28;19913;-54
2023/09/01 21:44:48;;;;;;;;;;;;;;;;;;5017720;28;19913;-51
2023/09/01 21:47:14;;;;;;;;;;;;;;;;;;5011454;28;20008;-50
2023/09/01 21:49:39;;;;;;;;;;;;;;;;;;5011723;28;19929;-51
2023/09/01 21:52:05;;;;;;;;;;;;;;;;;;5011298;28;19909;-51